<?xml version="1.0" encoding="utf-8"?>
<gpx xmlns:xsi="http://www.w3.org/2001/XMLSchema-instance" xmlns:xsd="http://www.w3.org/2001/XMLSchema" version="1.1" creator="Shapelink.com" xmlns="http://www.topografix.com/GPX/1/1" xmlns:gpxtpx="http://www.garmin.com/xmlschemas/TrackPointExtension/v1">
  <metadata>
    <name>Övrigt 2.53 km, 2019-01-27</name>
    <desc></desc>
    <author><name>Marian Moron</name></author> 
    <time>2019-01-27T19:48:18Z</time>
  </metadata>
  <trk>
    <name>Övrigt 2.53 km, 2019-01-27</name>
    <trkseg>
      <trkpt lat="51.229787986971" lon="4.457973780861">
        <ele>0</ele>
        <time>2019-01-27T19:48:18Z</time>
      </trkpt>
      <trkpt lat="51.229786142953" lon="4.458043518269">
        <ele>0</ele>
        <time>2019-01-27T19:48:22Z</time>
      </trkpt>
      <trkpt lat="51.229809360816" lon="4.458252059941">
        <ele>0</ele>
        <time>2019-01-27T19:48:46Z</time>
      </trkpt>
      <trkpt lat="51.229814557594" lon="4.458286090455">
        <ele>0</ele>
        <time>2019-01-27T19:48:49Z</time>
      </trkpt>
      <trkpt lat="51.229901980811" lon="4.458513491402">
        <ele>0</ele>
        <time>2019-01-27T19:49:05Z</time>
      </trkpt>
      <trkpt lat="51.229927377968" lon="4.458552131961">
        <ele>0</ele>
        <time>2019-01-27T19:49:24Z</time>
      </trkpt>
      <trkpt lat="51.229946404881" lon="4.458747849326">
        <ele>0</ele>
        <time>2019-01-27T19:49:33Z</time>
      </trkpt>
      <trkpt lat="51.229982698508" lon="4.458828650842">
        <ele>0</ele>
        <time>2019-01-27T19:49:41Z</time>
      </trkpt>
      <trkpt lat="51.230287296754" lon="4.458678950108">
        <ele>0</ele>
        <time>2019-01-27T19:50:14Z</time>
      </trkpt>
      <trkpt lat="51.230362985311" lon="4.458709376405">
        <ele>0</ele>
        <time>2019-01-27T19:50:20Z</time>
      </trkpt>
      <trkpt lat="51.230444792655" lon="4.458837619475">
        <ele>0</ele>
        <time>2019-01-27T19:50:27Z</time>
      </trkpt>
      <trkpt lat="51.230477565884" lon="4.458852623076">
        <ele>0</ele>
        <time>2019-01-27T19:50:42Z</time>
      </trkpt>
      <trkpt lat="51.230447642501" lon="4.4589361068">
        <ele>0</ele>
        <time>2019-01-27T19:50:48Z</time>
      </trkpt>
      <trkpt lat="51.230445379388" lon="4.45911464127">
        <ele>0</ele>
        <time>2019-01-27T19:50:58Z</time>
      </trkpt>
      <trkpt lat="51.230464322482" lon="4.459526611655">
        <ele>0</ele>
        <time>2019-01-27T19:51:19Z</time>
      </trkpt>
      <trkpt lat="51.230508662733" lon="4.459652926888">
        <ele>0</ele>
        <time>2019-01-27T19:51:54Z</time>
      </trkpt>
      <trkpt lat="51.230688035393" lon="4.460284251596">
        <ele>0</ele>
        <time>2019-01-27T19:52:28Z</time>
      </trkpt>
      <trkpt lat="51.230701614071" lon="4.460694377963">
        <ele>0</ele>
        <time>2019-01-27T19:52:46Z</time>
      </trkpt>
      <trkpt lat="51.230722820278" lon="4.460907781137">
        <ele>0</ele>
        <time>2019-01-27T19:52:55Z</time>
      </trkpt>
      <trkpt lat="51.230798173559" lon="4.461134930627">
        <ele>0</ele>
        <time>2019-01-27T19:53:06Z</time>
      </trkpt>
      <trkpt lat="51.230860283438" lon="4.461377167537">
        <ele>0</ele>
        <time>2019-01-27T19:53:25Z</time>
      </trkpt>
      <trkpt lat="51.231225482821" lon="4.461659972843">
        <ele>0</ele>
        <time>2019-01-27T19:54:05Z</time>
      </trkpt>
      <trkpt lat="51.231248952141" lon="4.461704313094">
        <ele>0</ele>
        <time>2019-01-27T19:54:08Z</time>
      </trkpt>
      <trkpt lat="51.231337716462" lon="4.462422222829">
        <ele>0</ele>
        <time>2019-01-27T19:54:40Z</time>
      </trkpt>
      <trkpt lat="51.231331010942" lon="4.463139713469">
        <ele>0</ele>
        <time>2019-01-27T19:55:12Z</time>
      </trkpt>
      <trkpt lat="51.231310559106" lon="4.463286815814">
        <ele>0</ele>
        <time>2019-01-27T19:55:24Z</time>
      </trkpt>
      <trkpt lat="51.231290694003" lon="4.463563502333">
        <ele>0</ele>
        <time>2019-01-27T19:55:40Z</time>
      </trkpt>
      <trkpt lat="51.231315839703" lon="4.464202035475">
        <ele>0</ele>
        <time>2019-01-27T19:56:33Z</time>
      </trkpt>
      <trkpt lat="51.231310726744" lon="4.464296415669">
        <ele>0</ele>
        <time>2019-01-27T19:56:41Z</time>
      </trkpt>
      <trkpt lat="51.231378536315" lon="4.464834952744">
        <ele>0</ele>
        <time>2019-01-27T19:57:15Z</time>
      </trkpt>
      <trkpt lat="51.231436539063" lon="4.464653903704">
        <ele>0</ele>
        <time>2019-01-27T19:57:24Z</time>
      </trkpt>
      <trkpt lat="51.231570146549" lon="4.464590033626">
        <ele>0</ele>
        <time>2019-01-27T19:57:40Z</time>
      </trkpt>
      <trkpt lat="51.231668633874" lon="4.464716851773">
        <ele>0</ele>
        <time>2019-01-27T19:57:54Z</time>
      </trkpt>
      <trkpt lat="51.23198496678" lon="4.465200487403">
        <ele>0</ele>
        <time>2019-01-27T19:58:35Z</time>
      </trkpt>
      <trkpt lat="51.232078173508" lon="4.465212892615">
        <ele>0</ele>
        <time>2019-01-27T19:58:42Z</time>
      </trkpt>
      <trkpt lat="51.23211907718" lon="4.465216496832">
        <ele>0.2</ele>
        <time>2019-01-27T19:58:45Z</time>
      </trkpt>
      <trkpt lat="51.23218613238" lon="4.46532143822">
        <ele>0</ele>
        <time>2019-01-27T19:58:56Z</time>
      </trkpt>
      <trkpt lat="51.232533562135" lon="4.465782610358">
        <ele>0</ele>
        <time>2019-01-27T19:59:30Z</time>
      </trkpt>
      <trkpt lat="51.232522917122" lon="4.465820245089">
        <ele>0</ele>
        <time>2019-01-27T19:59:33Z</time>
      </trkpt>
      <trkpt lat="51.232297276374" lon="4.466434805997">
        <ele>0</ele>
        <time>2019-01-27T20:00:09Z</time>
      </trkpt>
      <trkpt lat="51.232161238137" lon="4.466746696496">
        <ele>4.4</ele>
        <time>2019-01-27T20:00:37Z</time>
      </trkpt>
      <trkpt lat="51.232098373887" lon="4.467005697206">
        <ele>8.4</ele>
        <time>2019-01-27T20:00:53Z</time>
      </trkpt>
      <trkpt lat="51.232155622264" lon="4.467411632623">
        <ele>0.6</ele>
        <time>2019-01-27T20:01:12Z</time>
      </trkpt>
      <trkpt lat="51.232051267609" lon="4.467573319474">
        <ele>0</ele>
        <time>2019-01-27T20:01:22Z</time>
      </trkpt>
      <trkpt lat="51.231980943468" lon="4.46756275828">
        <ele>0.8</ele>
        <time>2019-01-27T20:01:39Z</time>
      </trkpt>
      <trkpt lat="51.23192126434" lon="4.467627634186">
        <ele>0</ele>
        <time>2019-01-27T20:01:46Z</time>
      </trkpt>
      <trkpt lat="51.23160275214" lon="4.46816793146">
        <ele>0</ele>
        <time>2019-01-27T20:02:19Z</time>
      </trkpt>
      <trkpt lat="51.231323970146" lon="4.468752736623">
        <ele>0</ele>
        <time>2019-01-27T20:02:51Z</time>
      </trkpt>
      <trkpt lat="51.230964386636" lon="4.469202760834">
        <ele>0</ele>
        <time>2019-01-27T20:03:19Z</time>
      </trkpt>
      <trkpt lat="51.230546129826" lon="4.469526134536">
        <ele>0</ele>
        <time>2019-01-27T20:03:49Z</time>
      </trkpt>
      <trkpt lat="51.230422245344" lon="4.469613893029">
        <ele>0</ele>
        <time>2019-01-27T20:04:03Z</time>
      </trkpt>
      <trkpt lat="51.230166765032" lon="4.469790415843">
        <ele>0</ele>
        <time>2019-01-27T20:04:29Z</time>
      </trkpt>
      <trkpt lat="51.230100799479" lon="4.469838779406">
        <ele>0</ele>
        <time>2019-01-27T20:04:40Z</time>
      </trkpt>
      <trkpt lat="51.229671227104" lon="4.470091912786">
        <ele>0</ele>
        <time>2019-01-27T20:05:05Z</time>
      </trkpt>
      <trkpt lat="51.22921558702" lon="4.470170535008">
        <ele>0</ele>
        <time>2019-01-27T20:05:36Z</time>
      </trkpt>
      <trkpt lat="51.228839155891" lon="4.470094511175">
        <ele>0</ele>
        <time>2019-01-27T20:06:01Z</time>
      </trkpt>
      <trkpt lat="51.22851486018" lon="4.469582712361">
        <ele>0</ele>
        <time>2019-01-27T20:06:34Z</time>
      </trkpt>
      <trkpt lat="51.228441602374" lon="4.469411721601">
        <ele>0</ele>
        <time>2019-01-27T20:06:45Z</time>
      </trkpt>
      <trkpt lat="51.22830531268" lon="4.468949543635">
        <ele>0</ele>
        <time>2019-01-27T20:07:04Z</time>
      </trkpt>
      <trkpt lat="51.228258625497" lon="4.468860946952">
        <ele>0</ele>
        <time>2019-01-27T20:07:24Z</time>
      </trkpt>
      <trkpt lat="51.228198359636" lon="4.468590295401">
        <ele>0</ele>
        <time>2019-01-27T20:07:39Z</time>
      </trkpt>
      <trkpt lat="51.227976658381" lon="4.467944218549">
        <ele>0</ele>
        <time>2019-01-27T20:08:08Z</time>
      </trkpt>
      <trkpt lat="51.227905160774" lon="4.467770964676">
        <ele>0.8</ele>
        <time>2019-01-27T20:08:18Z</time>
      </trkpt>
      <trkpt lat="51.227857635401" lon="4.467660742691">
        <ele>1.4</ele>
        <time>2019-01-27T20:08:25Z</time>
      </trkpt>
      <trkpt lat="51.227767027062" lon="4.467397383393">
        <ele>2.4</ele>
        <time>2019-01-27T20:08:38Z</time>
      </trkpt>
      <trkpt lat="51.227805416164" lon="4.467262183346">
        <ele>6</ele>
        <time>2019-01-27T20:08:47Z</time>
      </trkpt>
      <trkpt lat="51.227948411378" lon="4.467042409928">
        <ele>8.2</ele>
        <time>2019-01-27T20:08:58Z</time>
      </trkpt>
      <trkpt lat="51.227979340589" lon="4.466963284792">
        <ele>7.6</ele>
        <time>2019-01-27T20:09:05Z</time>
      </trkpt>
      <trkpt lat="51.227971796879" lon="4.466889356434">
        <ele>6</ele>
        <time>2019-01-27T20:09:09Z</time>
      </trkpt>
      <trkpt lat="51.227882194368" lon="4.466704116444">
        <ele>3.8</ele>
        <time>2019-01-27T20:09:20Z</time>
      </trkpt>
      <trkpt lat="51.227885630947" lon="4.466586769844">
        <ele>0.4</ele>
        <time>2019-01-27T20:09:30Z</time>
      </trkpt>
      <trkpt lat="51.227865933482" lon="4.466462382448">
        <ele>0.2</ele>
        <time>2019-01-27T20:09:36Z</time>
      </trkpt>
      <trkpt lat="51.227889654259" lon="4.466346712228">
        <ele>0.6</ele>
        <time>2019-01-27T20:09:46Z</time>
      </trkpt>
      <trkpt lat="51.228141111259" lon="4.466083185292">
        <ele>0</ele>
        <time>2019-01-27T20:10:09Z</time>
      </trkpt>
      <trkpt lat="51.228367674016" lon="4.465957456792">
        <ele>2.6</ele>
        <time>2019-01-27T20:10:50Z</time>
      </trkpt>
      <trkpt lat="51.228644863449" lon="4.465434007137">
        <ele>4</ele>
        <time>2019-01-27T20:11:20Z</time>
      </trkpt>
      <trkpt lat="51.228635810997" lon="4.465165031966">
        <ele>2.6</ele>
        <time>2019-01-27T20:11:34Z</time>
      </trkpt>
      <trkpt lat="51.228625668898" lon="4.464447792783">
        <ele>4.6</ele>
        <time>2019-01-27T20:12:07Z</time>
      </trkpt>
      <trkpt lat="51.228592560393" lon="4.4641580305">
        <ele>2.4</ele>
        <time>2019-01-27T20:12:28Z</time>
      </trkpt>
      <trkpt lat="51.228475716707" lon="4.463482030265">
        <ele>7.6</ele>
        <time>2019-01-27T20:13:00Z</time>
      </trkpt>
      <trkpt lat="51.228465574608" lon="4.463476079116">
        <ele>7.4</ele>
        <time>2019-01-27T20:13:01Z</time>
      </trkpt>
      <trkpt lat="51.228201209482" lon="4.463247420884">
        <ele>2</ele>
        <time>2019-01-27T20:13:27Z</time>
      </trkpt>
      <trkpt lat="51.22797003668" lon="4.463171564689">
        <ele>0</ele>
        <time>2019-01-27T20:13:53Z</time>
      </trkpt>
      <trkpt lat="51.227883786929" lon="4.462838887078">
        <ele>0.2</ele>
        <time>2019-01-27T20:14:14Z</time>
      </trkpt>
      <trkpt lat="51.227890073354" lon="4.462108320674">
        <ele>2.2</ele>
        <time>2019-01-27T20:14:51Z</time>
      </trkpt>
      <trkpt lat="51.227863670369" lon="4.461886619419">
        <ele>2.6</ele>
        <time>2019-01-27T20:15:02Z</time>
      </trkpt>
      <trkpt lat="51.227852019528" lon="4.461836830933">
        <ele>2.8</ele>
        <time>2019-01-27T20:15:05Z</time>
      </trkpt>
      <trkpt lat="51.227837351203" lon="4.461584284286">
        <ele>4.8</ele>
        <time>2019-01-27T20:15:17Z</time>
      </trkpt>
      <trkpt lat="51.227869034785" lon="4.461048261781">
        <ele>8.8</ele>
        <time>2019-01-27T20:15:43Z</time>
      </trkpt>
      <trkpt lat="51.227888983707" lon="4.460896717029">
        <ele>9.4</ele>
        <time>2019-01-27T20:15:58Z</time>
      </trkpt>
      <trkpt lat="51.227876746133" lon="4.460628328591">
        <ele>2.4</ele>
        <time>2019-01-27T20:16:11Z</time>
      </trkpt>
      <trkpt lat="51.228064165417" lon="4.460455912908">
        <ele>7</ele>
        <time>2019-01-27T20:16:36Z</time>
      </trkpt>
      <trkpt lat="51.228186038243" lon="4.460421630937">
        <ele>12.4</ele>
        <time>2019-01-27T20:16:44Z</time>
      </trkpt>
      <trkpt lat="51.228284441749" lon="4.460583820702">
        <ele>11.8</ele>
        <time>2019-01-27T20:16:59Z</time>
      </trkpt>
      <trkpt lat="51.228309671268" lon="4.460587844014">
        <ele>8.4</ele>
        <time>2019-01-27T20:17:04Z</time>
      </trkpt>
      <trkpt lat="51.228231216684" lon="4.460271427289">
        <ele>0.4</ele>
        <time>2019-01-27T20:17:24Z</time>
      </trkpt>
      <trkpt lat="51.228347641275" lon="4.460012426579">
        <ele>0</ele>
        <time>2019-01-27T20:17:45Z</time>
      </trkpt>
      <trkpt lat="51.228519470225" lon="4.459421167353">
        <ele>0</ele>
        <time>2019-01-27T20:18:13Z</time>
      </trkpt>
      <trkpt lat="51.228523577356" lon="4.459388813219">
        <ele>0</ele>
        <time>2019-01-27T20:18:15Z</time>
      </trkpt>
      <trkpt lat="51.228546795219" lon="4.459302814925">
        <ele>0.6</ele>
        <time>2019-01-27T20:18:20Z</time>
      </trkpt>
      <trkpt lat="51.228591889841" lon="4.458904590856">
        <ele>0.2</ele>
        <time>2019-01-27T20:18:44Z</time>
      </trkpt>
      <trkpt lat="51.228649724951" lon="4.458209060794">
        <ele>2</ele>
        <time>2019-01-27T20:19:20Z</time>
      </trkpt>
      <trkpt lat="51.229011571574" lon="4.458150387494">
        <ele>13.6</ele>
        <time>2019-01-27T20:20:04Z</time>
      </trkpt>
      <trkpt lat="51.229462936889" lon="4.457956514147">
        <ele>12.2</ele>
        <time>2019-01-27T20:20:41Z</time>
      </trkpt>
      <trkpt lat="51.229480371241" lon="4.457946372048">
        <ele>12.2</ele>
        <time>2019-01-27T20:20:42Z</time>
      </trkpt>
      <trkpt lat="51.229662761385" lon="4.45785316532">
        <ele>15.4</ele>
        <time>2019-01-27T20:21:17Z</time>
      </trkpt>
    </trkseg>
  </trk>
</gpx>